createdAt,value
2017-09-21T00:01:08.922Z,0
2017-09-21T00:02:22.994Z,0
2017-09-21T00:03:36.831Z,0
2017-09-21T00:04:50.990Z,0
2017-09-21T00:06:05.345Z,0
2017-09-21T00:07:19.770Z,0
2017-09-21T00:08:33.983Z,0
2017-09-21T00:09:48.280Z,0
2017-09-21T00:11:02.237Z,0
2017-09-21T00:12:16.390Z,0
2017-09-21T00:13:30.661Z,0
2017-09-21T00:14:44.345Z,0
2017-09-21T00:15:58.231Z,0
2017-09-21T00:17:13.090Z,0
2017-09-21T00:18:27.207Z,0
2017-09-21T00:19:41.702Z,0
2017-09-21T00:20:56.396Z,0
2017-09-21T00:22:10.334Z,0
2017-09-21T00:23:23.980Z,0
2017-09-21T00:24:37.748Z,0
2017-09-21T00:25:51.791Z,0
2017-09-21T00:27:05.655Z,0
2017-09-21T00:28:19.921Z,0
2017-09-21T00:29:34.179Z,0
2017-09-21T00:30:48.810Z,0
2017-09-21T00:32:02.432Z,0
2017-09-21T00:33:16.273Z,0
2017-09-21T00:34:30.866Z,0
2017-09-21T00:35:44.679Z,0
2017-09-21T00:36:58.497Z,0
2017-09-21T00:38:12.543Z,0
2017-09-21T00:39:27.108Z,0
2017-09-21T00:40:40.968Z,0
2017-09-21T00:41:55.471Z,0
2017-09-21T00:43:09.085Z,0
2017-09-21T00:44:23.489Z,0
2017-09-21T00:45:37.568Z,0
2017-09-21T00:46:52.452Z,0
2017-09-21T00:48:06.162Z,0
2017-09-21T00:49:20.352Z,0
2017-09-21T00:50:34.244Z,0
2017-09-21T00:52:02.645Z,0
2017-09-21T00:53:16.492Z,0
2017-09-21T00:54:30.037Z,0
2017-09-21T00:55:44.513Z,0
2017-09-21T00:56:58.613Z,0
2017-09-21T00:58:12.692Z,0
2017-09-21T00:59:26.993Z,0
2017-09-21T01:00:41.029Z,0
2017-09-21T01:01:54.766Z,0
2017-09-21T01:03:08.372Z,0
2017-09-21T01:04:22.881Z,0
2017-09-21T01:05:36.680Z,0
2017-09-21T01:06:50.515Z,0
2017-09-21T01:08:04.447Z,0
2017-09-21T01:09:17.973Z,0
2017-09-21T01:10:31.912Z,0
2017-09-21T01:11:46.430Z,0
2017-09-21T01:13:00.376Z,0
2017-09-21T01:14:14.679Z,0
2017-09-21T01:15:28.321Z,0
2017-09-21T01:17:56.287Z,0
2017-09-21T01:19:09.812Z,0
2017-09-21T01:20:23.943Z,0
2017-09-21T01:21:37.544Z,0
2017-09-21T01:22:52.285Z,0
2017-09-21T01:24:07.179Z,0
2017-09-21T01:25:21.119Z,0
2017-09-21T01:26:35.434Z,0
2017-09-21T01:27:49.294Z,0
2017-09-21T01:29:03.375Z,0
2017-09-21T01:30:17.854Z,0
2017-09-21T01:31:51.031Z,0
2017-09-21T01:33:19.849Z,0
2017-09-21T01:34:33.456Z,0
2017-09-21T01:35:47.394Z,0
2017-09-21T01:37:00.950Z,0
2017-09-21T01:38:14.502Z,0
2017-09-21T01:39:28.067Z,0
2017-09-21T01:40:41.813Z,0
2017-09-21T01:41:55.617Z,0
2017-09-21T01:44:38.245Z,0
2017-09-21T01:45:52.134Z,0
2017-09-21T01:47:06.328Z,0
2017-09-21T01:48:19.986Z,0
2017-09-21T01:49:37.208Z,0
2017-09-21T01:50:51.376Z,0
2017-09-21T01:52:06.298Z,0
2017-09-21T01:53:20.331Z,0
2017-09-21T01:54:33.910Z,0
2017-09-21T01:55:47.714Z,0
2017-09-21T01:57:01.288Z,0
2017-09-21T01:58:15.190Z,0
2017-09-21T01:59:29.093Z,0
2017-09-21T02:00:42.656Z,0
2017-09-21T02:01:57.602Z,0
2017-09-21T02:03:11.461Z,0
2017-09-21T02:04:25.141Z,0
2017-09-21T02:05:39.016Z,0
2017-09-21T02:06:53.043Z,0
2017-09-21T02:08:06.950Z,0
2017-09-21T02:09:20.496Z,0
2017-09-21T02:10:34.042Z,0
2017-09-21T02:11:47.956Z,0
2017-09-21T02:13:01.703Z,0
2017-09-21T02:14:15.339Z,0
2017-09-21T02:15:29.102Z,0
2017-09-21T02:16:42.669Z,0
2017-09-21T02:17:57.856Z,0
2017-09-21T02:19:11.404Z,0
2017-09-21T02:20:25.199Z,0
2017-09-21T02:21:38.777Z,0
2017-09-21T02:22:52.257Z,0
2017-09-21T02:24:06.060Z,0
2017-09-21T02:25:20.184Z,0
2017-09-21T02:26:34.275Z,0
2017-09-21T02:27:48.168Z,0
2017-09-21T02:29:14.689Z,0
2017-09-21T02:30:28.301Z,0
2017-09-21T02:31:41.779Z,0
2017-09-21T02:32:55.410Z,0
2017-09-21T02:34:08.974Z,0
2017-09-21T02:35:22.835Z,0
2017-09-21T02:36:36.336Z,0
2017-09-21T02:37:49.887Z,0
2017-09-21T02:39:03.541Z,0
2017-09-21T02:40:17.153Z,0
2017-09-21T02:41:31.399Z,0
2017-09-21T02:42:45.004Z,0
2017-09-21T02:43:58.851Z,0
2017-09-21T02:45:12.857Z,0
2017-09-21T02:46:26.355Z,0
2017-09-21T02:47:40.154Z,0
2017-09-21T02:48:53.996Z,0
2017-09-21T02:50:07.503Z,0
2017-09-21T02:51:21.009Z,0
2017-09-21T02:52:34.625Z,0
2017-09-21T02:53:48.410Z,0
2017-09-21T02:55:02.384Z,0
2017-09-21T02:56:22.880Z,0
2017-09-21T02:57:36.410Z,0
2017-09-21T02:58:49.986Z,0
2017-09-21T03:00:04.186Z,0
2017-09-21T03:01:18.039Z,0
2017-09-21T03:02:31.921Z,0
2017-09-21T03:03:45.392Z,0
2017-09-21T03:04:59.032Z,0
2017-09-21T03:06:12.837Z,0
2017-09-21T03:07:26.343Z,0
2017-09-21T03:08:39.858Z,0
2017-09-21T03:09:54.223Z,0
2017-09-21T03:11:07.759Z,0
2017-09-21T03:12:21.707Z,0
2017-09-21T03:13:35.577Z,0
2017-09-21T03:14:49.210Z,0
2017-09-21T03:16:03.314Z,0
2017-09-21T03:17:17.492Z,0
2017-09-21T03:18:31.345Z,0
2017-09-21T03:19:45.149Z,0
2017-09-21T03:20:58.714Z,0
2017-09-21T03:22:12.478Z,0
2017-09-21T03:23:26.853Z,0
2017-09-21T03:24:40.676Z,0
2017-09-21T03:25:54.575Z,0
2017-09-21T03:27:08.153Z,0
2017-09-21T03:28:21.711Z,0
2017-09-21T03:29:35.208Z,0
2017-09-21T03:30:49.112Z,0
2017-09-21T03:32:02.685Z,0
2017-09-21T03:33:16.784Z,0
2017-09-21T03:34:30.328Z,0
2017-09-21T03:35:43.837Z,0
2017-09-21T03:36:57.675Z,0
2017-09-21T03:38:11.396Z,0
2017-09-21T03:39:24.869Z,0
2017-09-21T03:40:38.435Z,0
2017-09-21T03:41:52.121Z,0
2017-09-21T03:43:05.994Z,0
2017-09-21T03:44:19.970Z,0
2017-09-21T03:45:33.875Z,0
2017-09-21T03:46:47.441Z,0
2017-09-21T03:48:01.064Z,0
2017-09-21T03:49:14.992Z,0
2017-09-21T03:50:28.566Z,0
2017-09-21T03:51:42.459Z,0
2017-09-21T03:52:56.021Z,0
2017-09-21T03:54:09.965Z,0
2017-09-21T03:55:25.074Z,0
2017-09-21T03:56:38.577Z,0
2017-09-21T03:57:52.123Z,0
2017-09-21T03:59:06.239Z,0
2017-09-21T04:00:20.407Z,0
2017-09-21T04:01:34.548Z,0
2017-09-21T04:02:48.381Z,0
2017-09-21T04:04:01.956Z,0
2017-09-21T04:05:15.816Z,0
2017-09-21T04:06:29.695Z,0
2017-09-21T04:07:43.488Z,0
2017-09-21T04:08:57.436Z,0
2017-09-21T04:10:11.103Z,0
2017-09-21T04:11:24.897Z,0
2017-09-21T04:12:38.781Z,0
2017-09-21T04:13:52.878Z,0
2017-09-21T04:15:06.370Z,0
2017-09-21T04:16:20.338Z,0
2017-09-21T04:17:34.590Z,0
2017-09-21T04:18:48.509Z,0
2017-09-21T04:20:02.416Z,0
2017-09-21T04:21:16.472Z,0
2017-09-21T04:22:30.223Z,0
2017-09-21T04:23:44.087Z,0
2017-09-21T04:24:57.853Z,0
2017-09-21T04:26:11.752Z,0
2017-09-21T04:27:25.802Z,0
2017-09-21T04:28:39.395Z,0
2017-09-21T04:29:53.000Z,0
2017-09-21T04:31:06.805Z,0
2017-09-21T04:32:21.834Z,0
2017-09-21T04:33:35.453Z,0
2017-09-21T04:34:49.336Z,0
2017-09-21T04:36:03.306Z,0
2017-09-21T04:37:16.977Z,0
2017-09-21T04:38:30.915Z,0
2017-09-21T04:39:44.448Z,0
2017-09-21T04:40:58.231Z,0
2017-09-21T04:42:12.323Z,0
2017-09-21T04:43:26.303Z,0
2017-09-21T04:44:41.091Z,0
2017-09-21T04:45:54.669Z,0
2017-09-21T04:47:08.279Z,0
2017-09-21T04:48:22.053Z,0
2017-09-21T04:49:35.899Z,0
2017-09-21T04:50:49.719Z,0
2017-09-21T04:52:03.797Z,0
2017-09-21T04:53:17.471Z,0
2017-09-21T04:54:31.107Z,0
2017-09-21T04:55:44.722Z,0
2017-09-21T04:56:59.376Z,0
2017-09-21T04:58:12.877Z,0
2017-09-21T04:59:26.855Z,0
2017-09-21T05:00:40.663Z,0
2017-09-21T05:01:54.919Z,0
2017-09-21T05:03:08.782Z,0
2017-09-21T05:04:22.593Z,0
2017-09-21T05:05:36.609Z,0
2017-09-21T05:06:50.817Z,0
2017-09-21T05:08:04.361Z,0
2017-09-21T05:09:18.413Z,0
2017-09-21T05:10:32.322Z,0
2017-09-21T05:11:45.937Z,0
2017-09-21T05:12:59.517Z,0
2017-09-21T05:14:13.126Z,0
2017-09-21T05:15:27.059Z,0
2017-09-21T05:16:40.600Z,0
2017-09-21T05:17:54.124Z,0
2017-09-21T05:19:07.981Z,0
2017-09-21T05:20:21.945Z,5
2017-09-21T05:21:35.845Z,5
2017-09-21T05:22:49.641Z,5
2017-09-21T05:24:03.390Z,5
2017-09-21T05:25:17.271Z,5
2017-09-21T05:26:30.977Z,5
2017-09-21T05:27:44.874Z,5
2017-09-21T05:28:59.148Z,5
2017-09-21T05:30:12.697Z,5
2017-09-21T05:31:26.943Z,10
2017-09-21T05:32:40.691Z,10
2017-09-21T05:33:55.150Z,10
2017-09-21T05:35:09.575Z,10
2017-09-21T05:36:23.456Z,10
2017-09-21T05:37:36.982Z,10
2017-09-21T05:38:50.492Z,10
2017-09-21T05:40:04.285Z,10
2017-09-21T05:41:18.018Z,10
2017-09-21T05:42:31.881Z,10
2017-09-21T05:43:45.899Z,15
2017-09-21T05:44:59.963Z,15
2017-09-21T05:46:14.037Z,15
2017-09-21T05:47:28.188Z,15
2017-09-21T05:48:41.983Z,15
2017-09-21T05:49:55.877Z,20
2017-09-21T05:51:09.643Z,20
2017-09-21T05:52:23.958Z,20
2017-09-21T05:53:37.946Z,20
2017-09-21T05:54:51.657Z,20
2017-09-21T05:56:05.596Z,25
2017-09-21T05:57:19.474Z,25
2017-09-21T05:58:33.600Z,25
2017-09-21T05:59:47.143Z,25
2017-09-21T06:01:00.953Z,25
2017-09-21T06:02:14.660Z,25
2017-09-21T06:03:28.721Z,25
2017-09-21T06:04:42.758Z,30
2017-09-21T06:05:56.329Z,30
2017-09-21T06:07:09.823Z,30
2017-09-21T06:08:23.340Z,35
2017-09-21T06:09:37.497Z,35
2017-09-21T06:10:51.427Z,35
2017-09-21T06:12:05.252Z,35
2017-09-21T06:13:19.400Z,35
2017-09-21T06:14:33.753Z,35
2017-09-21T06:15:47.501Z,40
2017-09-21T06:17:01.408Z,35
2017-09-21T06:18:15.143Z,35
2017-09-21T06:19:29.821Z,30
2017-09-21T06:20:44.378Z,35
2017-09-21T06:21:57.950Z,40
2017-09-21T06:23:11.803Z,40
2017-09-21T06:24:25.776Z,40
2017-09-21T06:25:39.262Z,40
2017-09-21T06:26:52.835Z,40
2017-09-21T06:28:06.788Z,40
2017-09-21T06:29:20.910Z,40
2017-09-21T06:30:35.094Z,45
2017-09-21T06:31:49.163Z,50
2017-09-21T06:33:03.269Z,50
2017-09-21T06:34:17.162Z,50
2017-09-21T06:35:30.996Z,50
2017-09-21T06:36:44.627Z,50
2017-09-21T06:37:58.139Z,50
2017-09-21T06:39:12.302Z,45
2017-09-21T06:40:26.173Z,45
2017-09-21T06:41:39.987Z,45
2017-09-21T06:43:06.328Z,45
2017-09-21T06:44:20.052Z,50
2017-09-21T06:45:33.576Z,55
2017-09-21T06:46:47.720Z,60
2017-09-21T06:48:01.209Z,65
2017-09-21T06:49:14.909Z,65
2017-09-21T06:50:28.382Z,60
2017-09-21T06:51:42.351Z,60
2017-09-21T06:52:56.849Z,65
2017-09-21T06:54:10.594Z,65
2017-09-21T06:55:24.740Z,65
2017-09-21T06:56:39.225Z,65
2017-09-21T06:57:52.811Z,65
2017-09-21T06:59:06.337Z,60
2017-09-21T07:00:20.263Z,55
2017-09-21T07:01:34.531Z,55
2017-09-21T07:02:48.778Z,55
2017-09-21T07:04:02.298Z,55
2017-09-21T07:05:16.474Z,55
2017-09-21T07:06:29.985Z,55
2017-09-21T07:07:43.629Z,55
2017-09-21T07:08:57.134Z,55
2017-09-21T07:10:10.703Z,60
2017-09-21T07:11:26.348Z,65
2017-09-21T07:12:39.870Z,65
2017-09-21T07:13:53.515Z,60
2017-09-21T07:15:07.329Z,60
2017-09-21T07:16:21.050Z,65
2017-09-21T07:17:34.849Z,65
2017-09-21T07:18:48.449Z,65
2017-09-21T07:20:01.938Z,65
2017-09-21T07:21:15.498Z,70
2017-09-21T07:22:29.365Z,70
2017-09-21T07:23:43.229Z,65
2017-09-21T07:24:56.771Z,70
2017-09-21T07:26:10.367Z,75
2017-09-21T07:27:23.901Z,75
2017-09-21T07:28:37.409Z,75
2017-09-21T07:29:51.202Z,75
2017-09-21T07:31:05.265Z,75
2017-09-21T07:32:19.433Z,80
2017-09-21T07:33:32.970Z,80
2017-09-21T07:34:47.159Z,85
2017-09-21T07:36:00.966Z,85
2017-09-21T07:37:16.017Z,85
2017-09-21T07:38:29.684Z,85
2017-09-21T07:39:43.314Z,85
2017-09-21T07:40:57.389Z,85
2017-09-21T07:42:11.554Z,80
2017-09-21T07:43:25.185Z,80
2017-09-21T07:44:38.906Z,80
2017-09-21T07:45:52.463Z,80
2017-09-21T07:47:06.633Z,85
2017-09-21T07:48:20.647Z,85
2017-09-21T07:49:34.572Z,90
2017-09-21T07:50:48.131Z,90
2017-09-21T07:52:01.785Z,90
2017-09-21T07:53:15.603Z,90
2017-09-21T07:54:29.530Z,95
2017-09-21T07:55:43.211Z,95
2017-09-21T07:56:56.732Z,95
2017-09-21T07:58:10.500Z,105
2017-09-21T07:59:24.619Z,100
2017-09-21T08:00:38.439Z,110
2017-09-21T08:01:52.310Z,120
2017-09-21T08:03:06.224Z,120
2017-09-21T08:04:20.221Z,120
2017-09-21T08:05:33.788Z,120
2017-09-21T08:06:47.901Z,125
2017-09-21T08:08:01.765Z,125
2017-09-21T08:09:15.328Z,120
2017-09-21T08:10:28.811Z,125
2017-09-21T08:11:42.810Z,130
2017-09-21T08:12:57.070Z,135
2017-09-21T08:14:10.977Z,140
2017-09-21T08:15:24.858Z,135
2017-09-21T08:16:38.371Z,135
2017-09-21T08:17:52.390Z,140
2017-09-21T08:19:06.287Z,140
2017-09-21T08:20:19.797Z,135
2017-09-21T08:21:33.359Z,130
2017-09-21T08:22:46.846Z,125
2017-09-21T08:24:00.536Z,135
2017-09-21T08:25:15.568Z,140
2017-09-21T08:26:29.077Z,135
2017-09-21T08:27:42.899Z,135
2017-09-21T08:28:56.742Z,140
2017-09-21T08:30:10.601Z,145
2017-09-21T08:31:25.147Z,140
2017-09-21T08:32:39.009Z,140
2017-09-21T08:33:52.505Z,140
2017-09-21T08:35:06.038Z,140
2017-09-21T08:36:20.091Z,145
2017-09-21T08:37:33.884Z,150
2017-09-21T08:38:47.376Z,160
2017-09-21T08:40:01.535Z,160
2017-09-21T08:41:15.713Z,160
2017-09-21T08:42:29.781Z,170
2017-09-21T08:43:43.562Z,185
2017-09-21T08:44:57.247Z,180
2017-09-21T08:46:10.830Z,175
2017-09-21T08:47:25.501Z,175
2017-09-21T08:48:39.100Z,185
2017-09-21T08:49:53.034Z,195
2017-09-21T08:51:06.559Z,200
2017-09-21T08:52:20.112Z,210
2017-09-21T08:53:34.108Z,205
2017-09-21T08:54:47.869Z,200
2017-09-21T08:56:02.190Z,205
2017-09-21T08:57:16.663Z,205
2017-09-21T08:58:30.174Z,205
2017-09-21T08:59:43.863Z,210
2017-09-21T09:00:57.360Z,205
2017-09-21T09:02:11.166Z,190
2017-09-21T09:03:24.815Z,195
2017-09-21T09:04:38.368Z,200
2017-09-21T09:05:51.871Z,180
2017-09-21T09:07:05.407Z,185
2017-09-21T09:08:19.191Z,200
2017-09-21T09:09:32.744Z,210
2017-09-21T09:10:47.086Z,210
2017-09-21T09:12:01.121Z,205
2017-09-21T09:13:14.686Z,190
2017-09-21T09:14:28.527Z,190
2017-09-21T09:15:48.289Z,190
2017-09-21T09:17:01.922Z,190
2017-09-21T09:18:15.791Z,195
2017-09-21T09:19:29.307Z,200
2017-09-21T09:20:43.606Z,205
2017-09-21T09:21:57.396Z,205
2017-09-21T09:23:11.308Z,200
2017-09-21T09:24:25.722Z,200
2017-09-21T09:25:39.223Z,195
2017-09-21T09:26:53.262Z,195
2017-09-21T09:28:06.912Z,195
2017-09-21T09:29:20.465Z,195
2017-09-21T09:30:33.980Z,180
2017-09-21T09:31:47.995Z,165
2017-09-21T09:33:01.774Z,160
2017-09-21T09:34:15.253Z,155
2017-09-21T09:35:28.754Z,155
2017-09-21T09:36:42.287Z,155
2017-09-21T09:37:56.457Z,160
2017-09-21T09:39:10.300Z,160
2017-09-21T09:40:24.233Z,175
2017-09-21T09:41:37.736Z,180
2017-09-21T09:42:51.306Z,190
2017-09-21T09:44:05.088Z,185
2017-09-21T09:45:19.674Z,175
2017-09-21T09:46:33.175Z,175
2017-09-21T09:47:47.296Z,175
2017-09-21T09:49:01.626Z,170
2017-09-21T09:50:15.494Z,165
2017-09-21T09:51:29.985Z,165
2017-09-21T09:52:43.714Z,160
2017-09-21T09:53:57.461Z,150
2017-09-21T09:55:11.721Z,145
2017-09-21T09:56:25.474Z,140
2017-09-21T09:57:39.618Z,140
2017-09-21T09:58:56.974Z,145
2017-09-21T10:00:14.501Z,145
2017-09-21T10:01:30.941Z,140
2017-09-21T10:02:49.201Z,140
2017-09-21T10:04:06.117Z,140
2017-09-21T10:05:22.703Z,140
2017-09-21T10:06:38.504Z,135
2017-09-21T10:07:54.596Z,140
2017-09-21T10:09:09.755Z,135
2017-09-21T10:10:25.933Z,140
2017-09-21T10:11:42.411Z,140
2017-09-21T10:12:58.741Z,135
2017-09-21T10:14:15.147Z,135
2017-09-21T10:15:32.356Z,135
2017-09-21T10:16:49.669Z,135
2017-09-21T10:18:08.325Z,135
2017-09-21T10:19:27.480Z,140
2017-09-21T10:20:43.413Z,140
2017-09-21T10:21:59.199Z,135
2017-09-21T10:23:14.704Z,135
2017-09-21T10:24:30.431Z,135
2017-09-21T10:25:45.491Z,135
2017-09-21T10:27:02.705Z,135
2017-09-21T10:28:22.681Z,130
2017-09-21T10:29:39.435Z,130
2017-09-21T10:30:56.266Z,130
2017-09-21T10:32:13.600Z,125
2017-09-21T10:33:30.279Z,125
2017-09-21T10:34:45.375Z,125
2017-09-21T10:36:01.202Z,125
2017-09-21T10:37:17.274Z,125
2017-09-21T10:38:33.502Z,125
2017-09-21T10:39:48.657Z,125
2017-09-21T10:41:04.500Z,125
2017-09-21T10:42:21.830Z,125
2017-09-21T10:43:41.033Z,125
2017-09-21T10:44:58.137Z,125
2017-09-21T10:46:15.832Z,125
2017-09-21T10:47:33.116Z,120
2017-09-21T10:48:49.094Z,120
2017-09-21T10:50:03.685Z,120
2017-09-21T10:51:19.833Z,120
2017-09-21T10:52:36.451Z,120
2017-09-21T10:53:52.239Z,120
2017-09-21T10:55:06.820Z,120
2017-09-21T10:56:23.888Z,120
2017-09-21T10:57:40.405Z,120
2017-09-21T10:58:57.866Z,120
2017-09-21T11:00:14.729Z,115
2017-09-21T11:01:31.597Z,115
2017-09-21T11:02:47.552Z,115
2017-09-21T11:04:03.155Z,115
2017-09-21T11:05:19.105Z,115
2017-09-21T11:06:34.529Z,115
2017-09-21T11:07:49.472Z,115
2017-09-21T11:09:05.470Z,115
2017-09-21T11:10:22.206Z,115
2017-09-21T11:11:40.336Z,115
2017-09-21T11:12:57.540Z,115
2017-09-21T11:14:34.008Z,115
2017-09-21T11:15:50.818Z,115
2017-09-21T11:17:07.988Z,115
2017-09-21T11:18:23.428Z,115
2017-09-21T11:19:39.168Z,115
2017-09-21T11:20:55.055Z,115
2017-09-21T11:22:11.150Z,115
2017-09-21T11:23:26.833Z,110
2017-09-21T11:24:43.904Z,110
2017-09-21T11:26:00.825Z,110
2017-09-21T11:27:18.374Z,110
2017-09-21T11:28:34.830Z,110
2017-09-21T11:29:52.332Z,110
2017-09-21T11:31:08.116Z,110
2017-09-21T11:32:24.688Z,110
2017-09-21T11:33:40.868Z,110
2017-09-21T11:34:56.993Z,110
2017-09-21T11:36:12.523Z,110
2017-09-21T11:37:27.932Z,110
2017-09-21T11:38:45.964Z,110
2017-09-21T11:40:03.587Z,110
2017-09-21T11:41:20.021Z,110
2017-09-21T11:42:37.313Z,110
2017-09-21T11:43:54.183Z,110
2017-09-21T11:45:10.527Z,110
2017-09-21T11:46:26.595Z,110
2017-09-21T11:47:42.173Z,110
2017-09-21T11:48:58.541Z,110
2017-09-21T11:50:13.521Z,110
2017-09-21T11:51:29.379Z,110
2017-09-21T11:52:46.715Z,110
2017-09-21T11:54:03.275Z,110
2017-09-21T11:55:20.310Z,110
2017-09-21T11:56:36.251Z,110
2017-09-21T11:57:52.844Z,110
2017-09-21T11:59:07.926Z,110
2017-09-21T12:00:24.154Z,110
2017-09-21T12:01:39.441Z,110
2017-09-21T12:02:54.579Z,110
2017-09-21T12:04:11.094Z,110
2017-09-21T12:05:28.439Z,110
2017-09-21T12:06:45.804Z,110
2017-09-21T12:08:02.869Z,105
2017-09-21T12:09:19.617Z,105
2017-09-21T12:10:55.663Z,105
2017-09-21T12:12:12.821Z,110
2017-09-21T12:13:29.628Z,105
2017-09-21T12:14:45.864Z,105
2017-09-21T12:16:14.781Z,105
2017-09-21T12:17:30.261Z,105
2017-09-21T12:18:46.942Z,105
2017-09-21T12:20:03.083Z,105
2017-09-21T12:21:19.747Z,105
2017-09-21T12:22:36.627Z,105
2017-09-21T12:23:52.855Z,105
2017-09-21T12:25:09.677Z,105
2017-09-21T12:26:26.686Z,105
2017-09-21T12:27:42.935Z,105
2017-09-21T12:28:59.283Z,105
2017-09-21T12:30:18.243Z,110
2017-09-21T12:31:33.303Z,110
2017-09-21T12:32:49.572Z,110
2017-09-21T12:34:05.903Z,110
2017-09-21T12:35:22.284Z,110
2017-09-21T12:36:40.300Z,105
2017-09-21T12:37:58.405Z,110
2017-09-21T12:39:16.052Z,110
2017-09-21T12:40:34.270Z,110
2017-09-21T12:41:49.753Z,110
2017-09-21T12:43:05.585Z,110
2017-09-21T12:44:22.601Z,110
2017-09-21T12:45:37.614Z,110
2017-09-21T12:46:54.636Z,110
2017-09-21T12:48:11.874Z,110
2017-09-21T12:49:29.512Z,110
2017-09-21T12:50:46.997Z,110
2017-09-21T12:52:04.861Z,110
2017-09-21T12:53:22.747Z,110
2017-09-21T12:54:40.272Z,110
2017-09-21T12:55:55.921Z,120
2017-09-21T12:57:10.973Z,130
2017-09-21T12:58:27.798Z,130
2017-09-21T12:59:43.431Z,135
2017-09-21T13:01:00.420Z,135
2017-09-21T13:02:16.706Z,125
2017-09-21T13:03:40.138Z,120
2017-09-21T13:05:03.634Z,115
2017-09-21T13:06:20.126Z,110
2017-09-21T13:07:38.902Z,105
2017-09-21T13:08:56.483Z,105
2017-09-21T13:10:12.062Z,105
2017-09-21T13:11:27.537Z,105
2017-09-21T13:12:43.250Z,105
2017-09-21T13:13:58.446Z,105
2017-09-21T13:15:14.458Z,105
2017-09-21T13:16:29.971Z,110
2017-09-21T13:17:47.311Z,110
2017-09-21T13:19:04.350Z,105
2017-09-21T13:20:21.257Z,105
2017-09-21T13:21:38.586Z,105
2017-09-21T13:22:56.540Z,105
2017-09-21T13:24:12.565Z,110
2017-09-21T13:25:29.378Z,105
2017-09-21T13:26:43.232Z,110
2017-09-21T13:28:00.008Z,105
2017-09-21T13:29:17.114Z,110
2017-09-21T13:30:33.702Z,110
2017-09-21T13:31:50.752Z,105
2017-09-21T13:33:07.382Z,105
2017-09-21T13:34:24.491Z,105
2017-09-21T13:35:43.124Z,105
2017-09-21T13:37:00.288Z,105
2017-09-21T13:38:16.929Z,105
2017-09-21T13:39:32.358Z,110
2017-09-21T13:40:47.051Z,105
2017-09-21T13:42:02.917Z,105
2017-09-21T13:43:17.854Z,105
2017-09-21T13:44:39.335Z,105
2017-09-21T13:45:56.354Z,105
2017-09-21T13:47:13.246Z,105
2017-09-21T13:48:29.497Z,105
2017-09-21T13:49:53.457Z,105
2017-09-21T13:51:10.044Z,105
2017-09-21T13:52:38.486Z,105
2017-09-21T13:53:56.836Z,105
2017-09-21T13:55:12.974Z,105
2017-09-21T13:56:28.452Z,105
2017-09-21T13:57:42.973Z,105
2017-09-21T13:58:58.577Z,105
2017-09-21T14:00:15.858Z,105
2017-09-21T14:01:33.341Z,105
2017-09-21T14:02:50.230Z,105
2017-09-21T14:04:08.273Z,105
2017-09-21T14:05:39.443Z,105
2017-09-21T14:06:56.659Z,105
2017-09-21T14:08:13.854Z,105
2017-09-21T14:09:30.451Z,100
2017-09-21T14:10:45.974Z,105
2017-09-21T14:12:01.937Z,105
2017-09-21T14:13:18.538Z,105
2017-09-21T14:14:38.592Z,105
2017-09-21T14:15:54.684Z,105
2017-09-21T14:17:11.685Z,105
2017-09-21T14:18:28.237Z,105
2017-09-21T14:19:45.348Z,105
2017-09-21T14:21:02.080Z,105
2017-09-21T14:22:18.020Z,105
2017-09-21T14:23:33.747Z,105
2017-09-21T14:24:48.605Z,105
2017-09-21T14:26:03.854Z,105
2017-09-21T14:27:19.255Z,105
2017-09-21T14:28:37.453Z,105
2017-09-21T14:29:53.910Z,105
2017-09-21T14:31:10.231Z,105
2017-09-21T14:32:26.711Z,105
2017-09-21T14:33:43.443Z,105
2017-09-21T14:34:59.618Z,105
2017-09-21T14:36:15.963Z,105
2017-09-21T14:37:31.442Z,105
2017-09-21T14:38:48.433Z,105
2017-09-21T14:40:04.736Z,105
2017-09-21T14:41:21.349Z,105
2017-09-21T14:42:38.395Z,105
2017-09-21T14:43:56.524Z,105
2017-09-21T14:45:14.072Z,105
2017-09-21T14:46:30.949Z,105
2017-09-21T14:47:47.924Z,105
2017-09-21T14:49:05.475Z,105
2017-09-21T14:50:20.514Z,105
2017-09-21T14:51:35.749Z,105
2017-09-21T14:52:51.846Z,105
2017-09-21T14:54:07.364Z,105
2017-09-21T14:55:22.855Z,105
2017-09-21T14:56:39.956Z,105
2017-09-21T14:57:55.796Z,105
2017-09-21T14:59:14.125Z,105
2017-09-21T15:00:32.683Z,105
2017-09-21T15:01:51.494Z,105
2017-09-21T15:03:08.837Z,105
2017-09-21T15:04:25.403Z,105
2017-09-21T15:05:42.330Z,105
2017-09-21T15:06:59.044Z,105
2017-09-21T15:08:15.281Z,105
2017-09-21T15:09:30.978Z,105
2017-09-21T15:10:47.960Z,100
2017-09-21T15:12:37.032Z,100
2017-09-21T15:13:54.993Z,100
2017-09-21T15:15:11.398Z,100
2017-09-21T15:16:28.257Z,100
2017-09-21T15:17:45.271Z,100
2017-09-21T15:19:00.888Z,100
2017-09-21T15:20:17.222Z,100
2017-09-21T15:21:33.473Z,95
2017-09-21T15:22:50.462Z,95
2017-09-21T15:24:06.868Z,95
2017-09-21T15:25:24.469Z,95
2017-09-21T15:26:42.681Z,95
2017-09-21T15:27:59.488Z,95
2017-09-21T15:29:17.119Z,95
2017-09-21T15:30:34.255Z,95
2017-09-21T15:31:50.579Z,95
2017-09-21T15:33:06.276Z,90
2017-09-21T15:34:21.763Z,90
2017-09-21T15:35:38.015Z,90
2017-09-21T15:37:02.133Z,90
2017-09-21T15:38:17.963Z,90
2017-09-21T15:39:34.955Z,90
2017-09-21T15:41:06.050Z,90
2017-09-21T15:42:23.246Z,90
2017-09-21T15:43:41.406Z,90
2017-09-21T15:44:58.735Z,90
2017-09-21T15:46:16.575Z,85
2017-09-21T15:47:33.556Z,85
2017-09-21T15:48:49.367Z,85
2017-09-21T15:50:07.660Z,85
2017-09-21T15:51:30.499Z,85
2017-09-21T15:53:00.912Z,85
2017-09-21T15:54:19.058Z,80
2017-09-21T15:55:36.328Z,80
2017-09-21T15:56:54.389Z,80
2017-09-21T15:58:10.845Z,80
2017-09-21T15:59:29.224Z,75
2017-09-21T16:00:45.399Z,75
2017-09-21T16:02:01.166Z,75
2017-09-21T16:03:16.826Z,75
2017-09-21T16:04:32.867Z,70
2017-09-21T16:06:52.458Z,70
2017-09-21T16:08:09.428Z,70
2017-09-21T16:09:25.380Z,70
2017-09-21T16:10:41.818Z,65
2017-09-21T16:11:59.471Z,65
2017-09-21T16:13:16.622Z,65
2017-09-21T16:14:33.207Z,65
2017-09-21T16:15:49.615Z,60
2017-09-21T16:17:04.701Z,60
2017-09-21T16:18:22.148Z,60
2017-09-21T16:19:39.038Z,55
2017-09-21T16:20:55.436Z,55
2017-09-21T16:22:11.279Z,55
2017-09-21T16:23:27.718Z,55
2017-09-21T16:24:44.456Z,50
2017-09-21T16:26:08.149Z,50
2017-09-21T16:30:57.068Z,45
2017-09-21T16:32:14.701Z,45
2017-09-21T16:33:31.074Z,40
2017-09-21T16:34:47.569Z,40
2017-09-21T16:36:03.195Z,40
2017-09-21T16:37:21.841Z,40
2017-09-21T16:38:40.812Z,35
2017-09-21T16:39:57.295Z,35
2017-09-21T16:41:14.068Z,35
2017-09-21T16:42:32.406Z,35
2017-09-21T16:43:49.816Z,30
2017-09-21T16:45:06.973Z,30
2017-09-21T16:46:25.693Z,30
2017-09-21T16:47:42.443Z,30
2017-09-21T16:48:58.565Z,25
2017-09-21T16:50:14.230Z,25
2017-09-21T16:51:28.472Z,25
2017-09-21T16:52:43.246Z,25
2017-09-21T16:54:13.664Z,20
2017-09-21T16:55:28.919Z,20
2017-09-21T16:56:46.014Z,20
2017-09-21T16:58:03.580Z,20
2017-09-21T16:59:21.232Z,15
2017-09-21T17:00:39.050Z,15
2017-09-21T17:01:56.349Z,15
2017-09-21T17:03:12.244Z,15
2017-09-21T17:04:27.741Z,15
2017-09-21T17:05:43.904Z,15
2017-09-21T17:06:59.904Z,10
2017-09-21T17:08:14.899Z,10
2017-09-21T17:09:31.594Z,10
2017-09-21T17:10:48.782Z,10
2017-09-21T17:12:05.057Z,10
2017-09-21T17:13:22.741Z,5
2017-09-21T17:14:40.376Z,5
2017-09-21T17:15:56.514Z,5
2017-09-21T17:17:12.638Z,5
2017-09-21T17:18:28.461Z,5
2017-09-21T17:19:44.989Z,5
2017-09-21T17:21:01.091Z,5
2017-09-21T17:22:16.548Z,0
2017-09-21T17:23:32.585Z,0
2017-09-21T17:24:51.088Z,0
2017-09-21T17:26:08.619Z,0
2017-09-21T17:27:25.954Z,0
2017-09-21T17:28:42.827Z,0
2017-09-21T17:30:00.234Z,0
2017-09-21T17:31:16.613Z,0
2017-09-21T17:32:32.669Z,0
2017-09-21T17:33:49.024Z,0
2017-09-21T17:35:05.247Z,0
2017-09-21T17:36:20.897Z,0
2017-09-21T17:37:36.418Z,0
2017-09-21T17:38:52.548Z,0
2017-09-21T17:40:08.118Z,0
2017-09-21T17:41:25.111Z,0
2017-09-21T17:42:43.406Z,0
2017-09-21T17:44:02.667Z,0
2017-09-21T17:45:18.529Z,0
2017-09-21T17:46:35.844Z,0
2017-09-21T17:47:52.003Z,0
2017-09-21T17:49:08.891Z,0
2017-09-21T17:50:26.620Z,0
2017-09-21T17:52:18.960Z,0
2017-09-21T17:53:40.876Z,0
2017-09-21T17:54:57.929Z,0
2017-09-21T17:56:14.661Z,0
2017-09-21T17:57:30.361Z,0
2017-09-21T17:58:47.451Z,0
2017-09-21T18:00:03.764Z,0
2017-09-21T18:01:19.551Z,0